Time;durP1;ratioP1;P1;durP2;ratioP2;P2;SDS_P1;SDS_P2;PMS_P1;PMS_P2;Temp;Humidity;BMP_temperature;BMP_pressure;BME280_temperature;BME280_humidity;BME280_pressure;Samples;Min_cycle;Max_cycle;Signal;HPM_P1;HPM_P2
2021/08/22 00:00:57;;;;;;;6.47;3.08;;;9.80;99.90;;;8.28;100.00;101686.53;5014101;28;20070;-74
2021/08/22 00:03:23;;;;;;;5.00;3.10;;;9.80;99.90;;;8.30;100.00;101688.22;5049024;28;20630;-74
2021/08/22 00:05:49;;;;;;;5.90;3.58;;;9.80;99.90;;;8.32;100.00;101691.66;5012719;28;20055;-74
2021/08/22 00:08:15;;;;;;;9.38;3.90;;;9.80;99.90;;;8.29;100.00;101688.22;5031113;28;20071;-74
2021/08/22 00:10:41;;;;;;;11.95;4.85;;;9.80;99.90;;;8.25;100.00;101674.34;5015141;28;20427;-74
2021/08/22 00:13:07;;;;;;;6.25;3.85;;;9.70;99.90;;;8.20;100.00;101671.78;5013910;28;20053;-74
2021/08/22 00:15:33;;;;;;;12.98;4.25;;;9.70;99.90;;;8.13;100.00;101675.44;5029379;28;20143;-74
2021/08/22 00:17:59;;;;;;;9.38;4.57;;;9.70;99.90;;;8.15;100.00;101681.53;5031710;28;20053;-74
2021/08/22 00:20:25;;;;;;;7.85;4.78;;;9.70;99.90;;;8.23;100.00;101684.00;5015712;28;20056;-74
2021/08/22 00:22:51;;;;;;;11.35;4.60;;;9.70;99.90;;;8.27;100.00;101685.66;5033018;28;20026;-74
2021/08/22 00:25:18;;;;;;;8.73;3.65;;;9.80;99.90;;;8.25;100.00;101708.44;5021539;28;20156;-74
2021/08/22 00:27:44;;;;;;;8.32;3.70;;;9.80;99.90;;;8.18;100.00;101689.31;5031963;28;20067;-74
2021/08/22 00:30:10;;;;;;;8.73;4.00;;;9.70;99.90;;;8.11;100.00;101681.63;5029553;28;20075;-74
2021/08/22 00:32:37;;;;;;;5.07;3.42;;;9.70;99.90;;;8.10;100.00;101679.88;5030956;28;20129;-74
2021/08/22 00:35:03;;;;;;;8.13;4.55;;;9.70;99.90;;;8.14;100.00;101685.06;5028960;28;20108;-74
2021/08/22 00:37:30;;;;;;;11.45;4.57;;;9.60;99.90;;;8.15;100.00;101680.66;5031413;28;20086;-74
2021/08/22 00:39:57;;;;;;;6.50;4.05;;;9.70;99.90;;;8.22;100.00;101690.97;5030253;28;20033;-74
2021/08/22 00:42:32;;;;;;;10.32;3.67;;;9.70;99.90;;;8.26;100.00;101702.28;5030277;28;20499;-74
2021/08/22 00:45:00;;;;;;;5.45;3.67;;;9.80;99.90;;;8.26;100.00;101699.66;5028247;28;20408;-74
2021/08/22 00:47:27;;;;;;;8.80;4.32;;;9.70;99.90;;;8.21;100.00;101697.13;5030134;28;20151;-74
2021/08/22 00:49:56;;;;;;;8.48;4.03;;;9.70;99.90;;;8.18;100.00;101691.09;5031277;28;20075;-74
2021/08/22 00:52:22;;;;;;;5.05;3.83;;;9.70;99.90;;;8.12;100.00;101683.34;5027933;28;20033;-74
2021/08/22 00:54:49;;;;;;;7.47;4.20;;;9.60;99.90;;;8.04;100.00;101677.41;5030957;28;20549;-74
2021/08/22 00:57:15;;;;;;;10.60;4.43;;;9.60;99.90;;;8.04;100.00;101680.03;5028801;28;20021;-74
2021/08/22 00:59:42;;;;;;;10.60;4.30;;;9.50;99.90;;;8.10;100.00;101685.13;5023408;28;20016;-74
2021/08/22 01:02:19;;;;;;;8.70;4.95;;;9.60;99.90;;;8.16;100.00;102005.97;5021654;28;20029;-74
2021/08/22 01:04:56;;;;;;;8.65;4.53;;;9.70;99.90;;;8.15;100.00;101979.75;5030261;28;20067;-74
2021/08/22 01:07:45;;;;;;;7.07;4.28;;;9.60;99.90;;;8.07;100.00;101965.88;5026846;28;20474;-74
2021/08/22 01:10:19;;;;;;;7.00;4.78;;;9.50;99.90;;;8.00;100.00;101955.47;5030117;28;20527;-74
2021/08/22 01:12:55;;;;;;;8.27;4.75;;;9.50;99.90;;;7.96;100.00;101953.81;5032251;28;20071;-74
2021/08/22 01:15:22;;;;;;;8.67;4.53;;;9.40;99.90;;;7.94;100.00;101945.09;5021760;28;20403;-74
2021/08/22 01:17:52;;;;;;;6.72;4.63;;;9.40;99.90;;;7.91;100.00;101937.28;5025352;28;20063;-74
2021/08/22 01:20:44;;;;;;;8.00;4.82;;;9.40;99.90;;;7.88;100.00;101924.19;5034984;28;20097;-74
2021/08/22 01:23:12;;;;;;;7.28;4.75;;;9.40;99.90;;;7.88;100.00;101918.97;5030874;28;20404;-74
2021/08/22 01:25:40;;;;;;;9.70;4.65;;;9.40;99.90;;;7.85;100.00;101920.78;5029149;28;20063;-74
2021/08/22 01:28:07;;;;;;;7.82;4.47;;;9.30;99.90;;;7.76;100.00;101904.31;5028566;28;20059;-74
2021/08/22 01:30:46;;;;;;;9.18;4.38;;;9.20;99.90;;;7.68;100.00;101900.06;5013818;28;20129;-74
2021/08/22 01:33:16;;;;;;;11.00;4.88;;;9.20;99.90;;;7.62;100.00;102031.22;5028920;28;20058;-74
2021/08/22 01:35:43;;;;;;;8.35;4.43;;;9.10;99.90;;;7.57;100.00;101916.81;5027983;28;20071;-74
2021/08/22 01:38:11;;;;;;;6.75;4.40;;;9.10;99.90;;;7.54;100.00;101930.00;5028121;28;20018;-74
2021/08/22 01:40:39;;;;;;;6.72;3.97;;;9.10;99.90;;;7.51;100.00;101934.41;5029729;28;20048;-74
2021/08/22 01:43:06;;;;;;;6.55;4.47;;;9.10;99.90;;;7.51;100.00;101935.25;5029263;28;20071;-74
2021/08/22 01:45:33;;;;;;;11.20;4.60;;;9.00;99.90;;;7.54;100.00;101950.97;5030483;28;21025;-74
2021/08/22 01:48:01;;;;;;;12.10;5.68;;;9.10;99.90;;;7.63;100.00;101967.44;5015376;28;20055;-74
2021/08/22 01:50:27;;;;;;;9.02;4.93;;;9.20;99.90;;;7.73;100.00;101979.50;5034511;28;20072;-74
2021/08/22 01:53:02;;;;;;;10.55;4.57;;;9.20;99.90;;;7.75;100.00;102019.69;5031556;28;20101;-74
2021/08/22 01:55:28;;;;;;;9.45;5.38;;;9.20;99.90;;;7.77;100.00;102025.78;5032986;28;20053;-74
2021/08/22 01:57:54;;;;;;;12.85;5.55;;;9.20;99.90;;;7.80;100.00;102031.84;5031228;28;20476;-74
2021/08/22 02:00:20;;;;;;;16.15;5.93;;;9.30;99.90;;;7.90;100.00;102034.34;5017577;28;20412;-74
2021/08/22 02:03:25;;;;;;;14.32;5.88;;;9.40;99.90;;;7.99;100.00;102048.19;5031918;28;20177;-74
2021/08/22 02:05:58;;;;;;;9.48;6.45;;;9.40;99.90;;;7.98;100.00;102059.56;5033241;28;20079;-74
2021/08/22 02:08:30;;;;;;;15.07;6.47;;;9.50;99.90;;;8.02;100.00;102047.28;5033187;28;20511;-74
2021/08/22 02:11:20;;;;;;;11.32;5.97;;;9.50;99.90;;;8.04;100.00;102210.75;5032369;28;21733;-74
2021/08/22 02:13:47;;;;;;;9.90;6.10;;;9.60;99.90;;;8.11;100.00;102073.38;5016150;28;20055;-74
2021/08/22 02:16:21;;;;;;;11.43;6.78;;;9.60;99.90;;;8.18;100.00;102076.75;5015292;28;20094;-74
2021/08/22 02:18:49;;;;;;;14.13;7.05;;;9.70;99.90;;;8.24;100.00;102242.00;5031317;28;20070;-74
2021/08/22 02:21:15;;;;;;;19.10;6.82;;;9.70;99.90;;;8.27;100.00;102235.84;5033442;28;20071;-74
2021/08/22 02:23:41;;;;;;;11.15;6.70;;;9.70;99.90;;;8.28;100.00;102243.69;5016313;28;20029;-74
2021/08/22 02:26:08;;;;;;;11.77;6.75;;;9.70;99.90;;;8.18;100.00;102210.56;5035340;28;20070;-74
2021/08/22 02:28:34;;;;;;;13.45;6.63;;;9.60;99.90;;;8.18;100.00;102176.47;5015907;28;20055;-74
2021/08/22 02:31:00;;;;;;;11.18;6.60;;;9.70;99.90;;;8.22;100.00;102200.03;5016936;28;20129;-74
2021/08/22 02:33:26;;;;;;;14.10;6.72;;;9.70;99.90;;;8.22;100.00;102202.63;5032501;28;20060;-74
2021/08/22 02:35:52;;;;;;;13.43;6.72;;;9.60;99.90;;;8.16;100.00;102175.63;5017209;28;20549;-74
2021/08/22 02:38:18;;;;;;;11.63;6.53;;;9.60;99.90;;;8.11;100.00;102185.31;5016144;28;20253;-74
2021/08/22 02:40:44;;;;;;;9.73;6.07;;;9.60;99.90;;;8.07;100.00;102186.25;5034917;28;20517;-74
2021/08/22 02:43:10;;;;;;;9.20;5.63;;;9.50;99.90;;;8.01;100.00;102201.19;5032450;28;20070;-74
2021/08/22 02:45:36;;;;;;;17.25;6.05;;;9.50;99.90;;;8.00;100.00;102204.69;5048071;28;20067;-74
2021/08/22 02:48:02;;;;;;;17.98;6.43;;;9.50;99.90;;;8.01;100.00;102201.19;5032435;28;20518;-74
2021/08/22 02:50:29;;;;;;;9.35;5.95;;;9.50;99.90;;;7.98;100.00;102210.84;5015144;28;20169;-74
2021/08/22 02:52:55;;;;;;;11.45;6.25;;;9.50;99.90;;;8.01;100.00;102211.69;5030729;28;20063;-74
2021/08/22 02:55:22;;;;;;;12.73;5.47;;;9.50;99.90;;;7.96;100.00;102220.47;5033575;28;20497;-74
2021/08/22 02:57:48;;;;;;;14.10;6.07;;;9.40;99.90;;;7.98;100.00;102226.56;5015334;28;20071;-74
2021/08/22 03:00:14;;;;;;;10.25;6.05;;;9.40;99.90;;;7.99;100.00;102221.31;5014996;28;20056;-74
2021/08/22 03:02:40;;;;;;;16.67;6.18;;;9.40;99.90;;;8.00;100.00;102214.31;5024491;28;20063;-74
2021/08/22 03:05:07;;;;;;;12.82;6.40;;;9.50;99.90;;;8.14;100.00;102228.13;5015396;28;20116;-74
2021/08/22 03:07:33;;;;;;;9.13;6.00;;;9.60;99.90;;;8.36;100.00;102304.84;5030747;28;20021;-74
2021/08/22 03:09:59;;;;;;;13.93;6.93;;;9.80;99.90;;;8.49;100.00;102267.94;5014197;28;20044;-74
2021/08/22 03:12:25;;;;;;;11.88;7.15;;;10.00;99.90;;;8.60;100.00;102281.81;5014232;28;20077;-74
2021/08/22 03:14:51;;;;;;;13.98;7.32;;;10.00;99.90;;;8.57;100.00;102295.88;5032264;28;20562;-74
2021/08/22 03:17:17;;;;;;;14.68;6.43;;;10.00;99.90;;;8.55;100.00;102283.63;5016410;28;20081;-73
2021/08/22 03:19:43;;;;;;;13.90;6.45;;;10.00;99.90;;;8.55;100.00;102291.50;5015651;28;20142;-74
2021/08/22 03:22:09;;;;;;;13.30;6.90;;;10.10;99.90;;;8.80;100.00;102342.81;5014224;28;20068;-74
2021/08/22 03:24:35;;;;;;;17.15;7.53;;;10.20;99.90;;;8.76;100.00;102341.09;5015851;28;20138;-74
2021/08/22 03:27:01;;;;;;;16.50;6.47;;;10.20;99.90;;;8.76;100.00;102343.72;5003948;28;20051;-74
2021/08/22 03:29:27;;;;;;;16.17;7.10;;;10.20;99.90;;;8.76;100.00;102329.75;5015615;28;20198;-74
2021/08/22 03:31:53;;;;;;;13.30;6.88;;;10.20;99.90;;;8.73;100.00;102338.53;5030826;28;20381;-74
2021/08/22 03:34:19;;;;;;;9.50;6.25;;;10.10;99.90;;;8.65;100.00;102343.00;5033255;28;20067;-74
2021/08/22 03:36:45;;;;;;;18.60;7.18;;;10.10;99.90;;;8.65;100.00;102348.25;5032086;28;20543;-75
2021/08/22 03:39:11;;;;;;;13.05;6.60;;;10.10;99.90;;;8.67;100.00;102382.38;5014114;28;20058;-74
2021/08/22 03:41:37;;;;;;;14.45;6.40;;;10.20;99.90;;;8.67;100.00;102393.75;5032614;28;20549;-74
2021/08/22 03:44:04;;;;;;;8.98;6.30;;;10.10;99.90;;;8.67;100.00;102393.75;5029118;28;20086;-74
2021/08/22 03:46:30;;;;;;;11.55;6.47;;;10.10;99.90;;;8.77;100.00;102431.31;5014170;28;20560;-74
2021/08/22 03:48:56;;;;;;;14.85;6.72;;;10.20;99.90;;;8.87;100.00;102432.03;5033295;28;20052;-74
2021/08/22 03:51:23;;;;;;;12.63;7.25;;;10.30;99.90;;;8.90;100.00;102421.47;5032154;28;20142;-74
2021/08/22 03:53:50;;;;;;;17.63;7.38;;;10.40;99.90;;;9.17;100.00;102457.91;5030517;28;20497;-74
2021/08/22 03:56:19;;;;;;;20.33;7.43;;;10.50;99.90;;;9.08;100.00;102459.81;5032604;28;20041;-74
2021/08/22 03:58:45;;;;;;;14.73;6.97;;;10.50;99.90;;;8.98;100.00;102445.91;5021882;28;20050;-74
2021/08/22 04:01:11;;;;;;;10.43;6.68;;;10.40;99.90;;;8.95;100.00;102506.38;5032189;28;20032;-74
2021/08/22 04:03:39;;;;;;;13.40;6.38;;;10.40;99.90;;;8.97;100.00;102513.34;5030757;28;21036;-74
2021/08/22 04:06:05;;;;;;;13.65;6.63;;;10.40;99.90;;;9.00;100.00;102523.81;5031025;28;20024;-74
2021/08/22 04:08:32;;;;;;;13.30;7.13;;;10.50;99.90;;;9.04;100.00;102524.66;5030637;28;20052;-74
2021/08/22 04:10:58;;;;;;;16.85;6.30;;;10.50;99.90;;;9.10;100.00;102506.19;5032829;28;20074;-74
2021/08/22 04:13:24;;;;;;;11.43;6.22;;;10.60;99.90;;;9.18;100.00;102529.78;5014692;28;20120;-74
2021/08/22 04:15:51;;;;;;;12.15;6.53;;;10.70;99.90;;;9.27;100.00;102532.28;5013524;28;20064;-74
2021/08/22 04:18:18;;;;;;;14.15;7.18;;;10.80;99.90;;;9.39;100.00;102557.53;5015045;28;20384;-74
2021/08/22 04:20:44;;;;;;;15.85;7.28;;;10.90;99.90;;;9.51;100.00;102544.25;5012464;28;20103;-74
2021/08/22 04:23:11;;;;;;;11.98;6.88;;;11.00;99.90;;;9.58;100.00;102532.75;5015195;28;20079;-74
2021/08/22 04:25:37;;;;;;;14.13;6.88;;;11.10;99.90;;;9.63;100.00;102533.56;5031324;28;20063;-74
2021/08/22 04:28:06;;;;;;;12.73;6.13;;;11.10;99.90;;;9.73;100.00;102546.59;5029352;28;20021;-75
2021/08/22 04:30:33;;;;;;;11.90;6.22;;;11.20;99.90;;;9.77;100.00;102570.19;5030846;28;20441;-74
2021/08/22 04:32:59;;;;;;;13.35;6.82;;;11.20;99.90;;;9.81;100.00;102577.16;5029186;28;20845;-74
2021/08/22 04:35:27;;;;;;;12.98;6.28;;;11.30;99.90;;;9.90;100.00;102578.78;5014347;28;20063;-74
2021/08/22 04:37:53;;;;;;;11.35;6.28;;;11.40;99.90;;;10.01;100.00;102602.31;5027326;28;20028;-74
2021/08/22 04:40:20;;;;;;;13.45;6.40;;;11.50;99.90;;;10.14;100.00;102626.69;5013402;28;20044;-74
2021/08/22 04:42:45;;;;;;;9.18;4.90;;;11.60;99.90;;;10.19;100.00;102624.84;5012469;28;20489;-74
2021/08/22 04:45:12;;;;;;;7.38;5.65;;;11.60;99.90;;;10.26;100.00;102605.47;5006604;28;20022;-74
2021/08/22 04:47:38;;;;;;;10.48;5.13;;;11.70;99.90;;;10.37;100.00;102590.41;5026549;28;20041;-74
2021/08/22 04:50:05;;;;;;;8.63;4.95;;;11.80;99.90;;;10.48;100.00;102619.19;5009531;28;20032;-74
2021/08/22 04:52:31;;;;;;;10.10;4.22;;;11.80;99.90;;;10.55;100.00;102756.94;5028014;28;20040;-74
2021/08/22 04:54:57;;;;;;;4.25;3.33;;;11.90;99.90;;;10.65;100.00;102640.88;5013439;28;20063;-74
2021/08/22 04:57:24;;;;;;;5.38;3.17;;;12.00;99.90;;;10.77;100.00;102600.25;5025706;28;20055;-75
2021/08/22 04:59:49;;;;;;;5.78;2.58;;;12.10;99.90;;;10.86;100.00;102497.34;5013304;28;20029;-74
2021/08/22 05:02:16;;;;;;;3.03;2.10;;;12.20;99.90;;;11.06;100.00;102493.44;5012965;28;20124;-74
2021/08/22 05:04:42;;;;;;;3.20;2.00;;;12.40;99.90;;;11.16;100.00;102487.03;5041214;28;20029;-74
2021/08/22 05:07:08;;;;;;;5.78;2.17;;;12.50;99.90;;;11.29;100.00;102496.47;5034767;28;20059;-74
2021/08/22 05:09:34;;;;;;;5.38;2.35;;;12.70;99.90;;;11.40;100.00;102508.53;5013983;28;20067;-74
2021/08/22 05:12:00;;;;;;;3.25;1.75;;;12.80;99.90;;;11.56;99.40;102504.66;5028851;28;20040;-74
2021/08/22 05:14:34;;;;;;;2.53;1.90;;;12.90;99.90;;;11.60;98.93;102505.47;5015032;28;20377;-74
2021/08/22 05:17:03;;;;;;;7.10;1.95;;;13.00;99.90;;;11.71;98.00;102506.09;5012838;28;20029;-74
2021/08/22 05:19:30;;;;;;;4.05;1.95;;;13.20;99.90;;;11.85;96.96;102516.31;5032797;28;20113;-74
2021/08/22 05:21:56;;;;;;;3.10;1.85;;;13.30;99.90;;;11.94;96.56;102517.91;5012234;28;20032;-74
2021/08/22 05:24:22;;;;;;;8.43;1.95;;;13.40;99.90;;;12.13;96.93;102524.47;5029760;28;20033;-74
2021/08/22 05:26:48;;;;;;;3.88;1.67;;;13.60;99.90;;;12.17;96.06;102522.63;5012163;28;20063;-74
2021/08/22 05:29:14;;;;;;;2.17;1.38;;;13.60;99.90;;;12.45;93.82;102546.56;5030285;28;20087;-74
2021/08/22 05:31:40;;;;;;;2.63;1.48;;;13.80;99.90;;;12.53;91.93;102541.97;5028240;28;20025;-74
2021/08/22 05:34:06;;;;;;;5.30;1.45;;;13.90;99.90;;;12.71;91.15;102551.19;5030079;28;20396;-74
2021/08/22 05:36:40;;;;;;;4.63;1.40;;;14.10;99.90;;;12.63;91.82;102516.16;5031101;28;20090;-74
2021/08/22 05:39:06;;;;;;;2.22;1.38;;;14.10;99.90;;;12.66;91.42;102510.81;5048137;28;20041;-74
2021/08/22 05:41:33;;;;;;;5.90;2.10;;;14.10;99.90;;;12.71;92.41;102520.31;5014269;28;20025;-75
2021/08/22 05:44:00;;;;;;;4.53;1.58;;;14.10;99.90;;;12.66;93.47;102510.81;5027966;28;20027;-74
2021/08/22 05:46:26;;;;;;;3.90;1.40;;;14.10;99.90;;;12.72;92.03;102510.63;5014814;28;20421;-74
2021/08/22 05:48:52;;;;;;;4.82;1.80;;;14.20;99.90;;;12.80;92.41;102511.28;5028185;28;20485;-75
2021/08/22 05:51:20;;;;;;;3.13;1.02;;;14.20;99.90;;;12.88;92.26;102519.88;5013480;28;20791;-74
2021/08/22 05:53:48;;;;;;;4.47;1.20;;;14.20;99.90;;;12.85;92.39;102503.22;5021874;28;20033;-74
2021/08/22 05:56:17;;;;;;;4.55;1.40;;;14.20;99.90;;;12.81;91.55;102494.53;5030853;28;20112;-74
2021/08/22 05:58:45;;;;;;;2.38;1.38;;;14.20;99.90;;;12.83;92.21;102498.00;5029726;28;20029;-74
2021/08/22 06:01:11;;;;;;;2.15;1.27;;;14.30;99.90;;;12.91;93.09;102490.72;5028433;28;20025;-74
2021/08/22 06:03:37;;;;;;;3.70;1.35;;;14.40;99.90;;;12.98;91.65;102507.28;5029896;28;20044;-74
2021/08/22 06:06:07;;;;;;;3.00;1.58;;;14.40;99.90;;;12.99;91.98;102486.97;5011428;28;20167;-74
2021/08/22 06:08:35;;;;;;;4.53;1.58;;;14.40;99.90;;;13.00;91.58;102483.41;5028187;28;20024;-74
2021/08/22 06:11:02;;;;;;;6.57;1.50;;;14.40;99.90;;;13.01;92.11;102478.09;5045183;28;20361;-74
2021/08/22 06:13:28;;;;;;;3.92;1.40;;;14.50;99.90;;;13.08;92.69;102481.41;5012164;28;20025;-75
2021/08/22 06:15:54;;;;;;;4.43;1.55;;;14.50;99.90;;;13.15;93.60;102467.09;5028569;28;20028;-74
2021/08/22 06:18:21;;;;;;;3.67;1.42;;;14.60;99.90;;;13.27;92.66;102466.72;5030478;28;20112;-74
2021/08/22 06:20:47;;;;;;;1.55;1.25;;;14.60;99.90;;;13.30;91.79;102471.09;5028256;28;20079;-74
2021/08/22 06:23:13;;;;;;;4.85;1.27;;;14.70;99.90;;;13.36;91.90;102462.13;5013230;28;20369;-74
2021/08/22 06:25:39;;;;;;;7.18;1.60;;;14.70;99.90;;;13.41;90.81;102463.72;5030604;28;20439;-74
2021/08/22 06:28:05;;;;;;;1.60;1.10;;;14.80;99.90;;;13.53;91.75;102462.47;5045743;28;20036;-74
2021/08/22 06:30:31;;;;;;;5.13;1.70;;;14.90;99.90;;;13.57;90.70;102458.81;5013149;28;20041;-75
2021/08/22 06:32:58;;;;;;;3.78;1.50;;;15.00;99.90;;;13.59;90.51;102461.41;5004307;28;20108;-74
2021/08/22 06:35:24;;;;;;;7.20;1.42;;;14.90;99.90;;;13.48;90.47;102445.88;5016145;28;20074;-74
2021/08/22 06:37:51;;;;;;;4.63;1.27;;;14.90;99.90;;;13.64;89.30;102465.63;5034257;28;20032;-74
2021/08/22 06:40:19;;;;;;;2.83;1.30;;;15.00;99.90;;;13.73;88.68;102460.03;5033591;28;20064;-74
2021/08/22 06:42:45;;;;;;;6.18;1.42;;;15.10;99.90;;;13.69;88.76;102458.44;5030795;28;20093;-75
2021/08/22 06:45:11;;;;;;;4.40;1.50;;;15.10;99.90;;;13.81;89.33;102456.28;5008823;28;20505;-75
2021/08/22 06:47:37;;;;;;;4.05;1.45;;;15.20;99.90;;;13.97;89.66;102467.22;5032946;28;20350;-74
2021/08/22 06:50:05;;;;;;;3.58;1.25;;;15.30;99.90;;;14.14;88.85;102486.06;5031567;28;20048;-74
2021/08/22 06:52:31;;;;;;;2.83;1.17;;;15.50;99.90;;;14.15;87.84;102478.09;5032677;28;20046;-75
2021/08/22 06:54:57;;;;;;;6.20;1.30;;;15.60;99.90;;;14.52;88.04;102516.56;5034322;28;20076;-74
2021/08/22 06:57:23;;;;;;;2.15;1.20;;;15.80;99.90;;;14.67;86.28;102512.56;5033035;28;20017;-74
2021/08/22 06:59:50;;;;;;;3.67;1.48;;;16.00;99.90;;;15.03;85.31;102529.84;5030066;28;20039;-75
2021/08/22 07:02:17;;;;;;;4.40;0.93;;;16.30;99.90;;;15.41;83.06;102570.88;5033625;28;20021;-74
2021/08/22 07:04:43;;;;;;;4.47;1.20;;;16.70;99.90;;;15.93;82.00;102598.09;5015014;28;20037;-75
2021/08/22 07:07:09;;;;;;;3.90;1.00;;;17.00;99.90;;;15.97;79.66;102567.84;5032434;28;20661;-75
2021/08/22 07:09:35;;;;;;;3.28;1.10;;;17.20;99.90;;;16.37;78.54;102586.59;5032188;28;20063;-74
2021/08/22 07:12:01;;;;;;;2.78;1.10;;;17.30;99.90;;;16.34;78.51;102606.19;5046943;28;20082;-74
2021/08/22 07:14:27;;;;;;;4.05;1.25;;;17.50;99.90;;;16.50;79.54;102594.94;5015908;28;20075;-75
2021/08/22 07:16:53;;;;;;;6.28;1.00;;;17.70;99.90;;;16.79;78.14;102604.34;5032960;28;20470;-75
2021/08/22 07:19:19;;;;;;;3.00;1.30;;;18.00;99.90;;;16.91;77.10;102595.88;5033152;28;20024;-74
2021/08/22 07:21:45;;;;;;;2.20;1.20;;;18.20;99.90;;;17.12;74.89;102588.72;5047264;28;20019;-75
2021/08/22 07:24:11;;;;;;;3.28;1.50;;;18.10;99.90;;;17.33;75.30;102608.19;5064556;28;20033;-75
2021/08/22 07:26:38;;;;;;;6.30;1.30;;;18.40;99.90;;;17.30;75.96;102573.75;5016130;28;20033;-75
2021/08/22 07:29:04;;;;;;;4.75;1.88;;;18.60;99.90;;;16.93;75.56;102506.22;5012768;28;20044;-74
2021/08/22 07:31:32;;;;;;;4.65;1.42;;;18.60;99.90;;;17.30;76.23;102552.44;5015665;28;20122;-75
2021/08/22 07:33:59;;;;;;;6.63;1.45;;;18.60;99.90;;;17.02;76.96;102512.91;5028797;28;20350;-75
2021/08/22 07:36:25;;;;;;;5.93;2.45;;;18.30;99.90;;;16.63;77.88;102464.97;5031934;28;20032;-75
2021/08/22 07:38:51;;;;;;;5.28;1.60;;;18.30;99.90;;;16.60;78.39;102450.00;5030865;28;20033;-75
2021/08/22 07:41:17;;;;;;;7.30;1.35;;;18.00;99.90;;;16.28;79.24;102462.91;5015353;28;20031;-75
2021/08/22 07:43:43;;;;;;;3.25;1.27;;;17.80;99.90;;;16.42;76.79;102462.34;5028863;28;20052;-75
2021/08/22 07:46:09;;;;;;;5.13;1.10;;;17.70;99.90;;;16.60;76.04;102469.50;5015416;28;20278;-75
2021/08/22 07:48:35;;;;;;;3.20;1.23;;;17.60;99.90;;;16.29;77.63;102429.25;5031626;28;21251;-75
2021/08/22 07:51:01;;;;;;;6.78;1.00;;;17.60;99.90;;;16.60;76.16;102472.16;5030525;28;20059;-75
2021/08/22 07:53:28;;;;;;;3.75;1.25;;;17.70;99.90;;;16.72;74.57;102477.88;5031550;28;20126;-74
2021/08/22 07:55:54;;;;;;;2.85;0.98;;;18.00;99.90;;;17.40;74.09;102531.56;5033003;28;20025;-75
2021/08/22 07:58:20;;;;;;;5.85;1.17;;;18.40;99.90;;;17.90;74.89;102564.75;5029840;28;20052;-75
2021/08/22 08:00:46;;;;;;;2.67;0.93;;;18.60;99.90;;;17.16;72.82;102475.00;5029870;28;20025;-75
2021/08/22 08:03:12;;;;;;;4.15;1.30;;;18.30;99.90;;;17.18;73.15;102483.78;5032188;28;20151;-75
2021/08/22 08:05:39;;;;;;;6.68;1.45;;;18.10;99.90;;;16.81;73.33;102465.03;5031415;28;20296;-74
2021/08/22 08:08:05;;;;;;;2.22;1.00;;;18.10;99.90;;;17.10;73.15;102485.94;5031715;28;20127;-75
2021/08/22 08:10:31;;;;;;;2.05;1.10;;;18.40;99.90;;;17.72;71.01;102538.03;5047228;28;20365;-74
2021/08/22 08:12:57;;;;;;;4.57;1.10;;;18.60;99.90;;;17.65;69.49;102506.44;5030792;28;20432;-74
2021/08/22 08:15:23;;;;;;;2.85;1.35;;;19.10;99.90;;;18.14;67.50;102539.56;5029303;28;20033;-75
2021/08/22 08:17:49;;;;;;;1.85;1.05;;;19.40;99.90;;;18.44;66.71;102576.28;5032209;28;20021;-75
2021/08/22 08:20:16;;;;;;;2.33;1.05;;;19.70;99.90;;;18.94;64.25;102561.31;5030619;28;20029;-75
2021/08/22 08:22:42;;;;;;;2.95;1.05;;;20.10;99.90;;;19.24;63.20;102569.47;5013668;28;20029;-75
2021/08/22 08:25:08;;;;;;;2.78;1.00;;;20.50;99.90;;;19.77;63.27;102627.16;5030165;28;20017;-75
2021/08/22 08:27:34;;;;;;;4.68;1.65;;;20.90;99.90;;;19.70;61.72;102655.19;5029967;28;20106;-75
2021/08/22 08:30:00;;;;;;;3.70;1.20;;;20.90;99.90;;;19.78;60.54;102705.53;5029486;28;20033;-75
2021/08/22 08:32:27;;;;;;;3.63;1.20;;;20.90;99.90;;;19.91;60.19;102677.19;5013958;28;20039;-75
2021/08/22 08:34:54;;;;;;;4.15;1.20;;;21.00;99.90;;;20.18;59.34;102602.59;5015155;28;20045;-75
2021/08/22 08:37:20;;;;;;;3.20;1.10;;;21.20;99.90;;;20.11;58.92;102544.19;5021607;28;20040;-75
2021/08/22 08:39:46;;;;;;;10.27;1.40;;;21.40;99.90;;;20.82;59.96;102581.00;5023465;28;20037;-75
2021/08/22 08:42:21;;;;;;;3.72;1.35;;;21.70;99.90;;;20.59;57.06;102531.56;5026971;28;20033;-74
2021/08/22 08:44:49;;;;;;;3.95;1.35;;;21.50;99.90;;;20.52;58.21;102519.47;5029170;28;20119;-75
2021/08/22 08:47:23;;;;;;;5.32;1.42;;;21.10;99.90;;;19.80;60.75;102458.59;5045523;28;20078;-75
2021/08/22 08:50:05;;;;;;;3.85;1.40;;;21.10;99.90;;;20.19;61.72;102524.06;5032433;28;20049;-75
2021/08/22 08:52:57;;;;;;;5.63;1.25;;;21.20;99.90;;;19.79;59.87;102453.38;5029627;28;20037;-75
2021/08/22 08:55:28;;;;;;;5.00;1.23;;;21.00;99.90;;;19.94;60.58;102475.66;5010475;28;20025;-75
2021/08/22 08:57:55;;;;;;;3.78;1.58;;;20.90;99.90;;;19.79;58.55;102440.84;5030653;28;20029;-75
2021/08/22 09:00:47;;;;;;;5.07;1.58;;;20.60;99.90;;;19.44;58.01;102395.63;5005208;28;20104;-75
2021/08/22 09:03:17;;;;;;;3.17;1.33;;;20.30;99.90;;;18.60;59.78;102313.13;5008964;28;20032;-75
2021/08/22 09:06:42;;;;;;;2.60;1.33;;;19.90;99.90;;;18.50;61.20;102306.59;4989697;28;20043;-75
2021/08/22 09:10:17;;;;;;;4.72;1.40;;;19.80;99.90;;;18.74;59.59;102330.19;4932904;28;20132;-75
2021/08/22 09:13:43;;;;;;;4.40;1.73;;;19.90;99.90;;;18.91;59.80;102332.78;4983340;28;20025;-75
2021/08/22 09:17:15;;;;;;;4.80;1.50;;;19.80;99.90;;;19.09;59.74;102338.88;5015872;28;20078;-74
2021/08/22 09:20:48;;;;;;;4.18;1.25;;;20.20;99.90;;;18.78;60.82;102283.75;4992696;28;20037;-75
2021/08/22 09:24:21;;;;;;;5.25;1.40;;;19.70;99.90;;;18.21;62.76;102237.06;4994985;28;20125;-75
2021/08/22 09:27:44;;;;;;;3.75;1.42;;;19.90;99.90;;;18.88;60.98;102292.06;4995919;28;20497;-75
2021/08/22 09:31:12;;;;;;;2.78;1.20;;;19.80;99.90;;;18.63;60.09;102280.94;4987756;28;20064;-74
2021/08/22 09:34:47;;;;;;;3.42;1.55;;;19.50;99.90;;;18.35;61.59;102228.28;5014296;28;20048;-77
2021/08/22 09:38:36;;;;;;;3.22;1.45;;;19.30;99.90;;;18.06;63.07;102232.56;4996650;28;20037;-75
2021/08/22 09:42:13;;;;;;;5.05;1.50;;;19.30;99.90;;;18.38;59.89;102238.78;4974964;28;20053;-74
2021/08/22 09:45:39;;;;;;;4.60;1.30;;;19.40;99.90;;;18.21;60.34;102210.41;4985614;28;20061;-74
2021/08/22 09:49:03;;;;;;;4.90;1.60;;;19.40;99.90;;;18.15;62.53;102208.06;4982171;28;20471;-75
2021/08/22 09:52:47;;;;;;;3.88;1.63;;;19.40;99.90;;;18.31;59.06;102215.22;4987944;28;20048;-74
2021/08/22 09:56:30;;;;;;;3.78;1.30;;;19.20;99.90;;;18.12;60.36;102303.31;4987475;28;20500;-75
2021/08/22 10:00:15;;;;;;;4.80;1.45;;;19.20;99.90;;;18.39;59.21;102239.66;4866794;29;20423;-74
2021/08/22 10:03:40;;;;;;;4.60;1.75;;;19.10;99.90;;;18.03;62.01;102240.72;4985641;28;20041;-75
2021/08/22 10:06:42;;;;;;;4.30;1.67;;;19.20;99.90;;;18.38;59.81;102257.47;4981487;28;20079;-75
2021/08/22 10:10:22;;;;;;;4.40;1.83;;;19.40;99.90;;;18.41;60.68;102230.59;4980208;28;20049;-75
2021/08/22 10:13:29;;;;;;;3.50;1.50;;;19.60;99.90;;;18.70;61.13;102251.25;4994070;28;20033;-75
2021/08/22 10:16:30;;;;;;;;;;;19.70;99.90;;;18.72;60.62;102215.53;4990740;28;20493;-75
2021/08/22 10:19:53;;;;;;;5.75;1.60;;;19.70;99.90;;;18.64;60.65;102218.66;5018255;28;20067;-75
2021/08/22 10:23:02;;;;;;;3.95;1.40;;;19.50;99.90;;;18.19;59.49;102164.28;5003572;28;20466;-74
2021/08/22 10:26:18;;;;;;;4.22;1.48;;;19.40;99.90;;;18.31;60.29;102168.06;4988579;28;20432;-75
2021/08/22 10:29:00;;;;;;;8.25;1.73;;;19.40;99.90;;;18.31;60.35;102153.88;5005433;28;20025;-75
2021/08/22 10:32:10;;;;;;;4.45;1.38;;;19.30;99.90;;;17.97;59.79;102132.66;4994688;28;20029;-74
2021/08/22 10:34:37;;;;;;;3.35;1.30;;;19.20;99.90;;;18.15;60.22;102138.75;5020722;28;20091;-74
2021/08/22 10:37:30;;;;;;;4.13;1.55;;;19.10;99.90;;;17.85;60.81;102122.66;5033640;28;20025;-74
2021/08/22 10:39:58;;;;;;;3.85;1.20;;;19.10;99.90;;;17.94;59.51;102134.63;5050596;28;20090;-75